sensor_id;sensor_type;location;lat;lon;timestamp;temperature;humidity
51853;DHT22;37894;53.172;6.598;2024-03-23T00:55:43;6.00;99.90
51853;DHT22;37894;53.172;6.598;2024-03-23T00:58:09;5.80;99.90
51853;DHT22;37894;53.172;6.598;2024-03-23T01:03:01;6.60;99.90
51853;DHT22;37894;53.172;6.598;2024-03-23T01:05:27;5.70;99.90
51853;DHT22;37894;53.172;6.598;2024-03-23T01:07:52;6.00;99.90
51853;DHT22;37894;53.172;6.598;2024-03-23T01:10:18;5.80;99.90
51853;DHT22;37894;53.172;6.598;2024-03-23T01:12:44;5.80;99.90
51853;DHT22;37894;53.172;6.598;2024-03-23T01:15:09;5.70;99.90
51853;DHT22;37894;53.172;6.598;2024-03-23T01:17:35;5.60;99.90
51853;DHT22;37894;53.172;6.598;2024-03-23T01:20:01;5.80;99.90
51853;DHT22;37894;53.172;6.598;2024-03-23T01:24:55;5.70;99.90
51853;DHT22;37894;53.172;6.598;2024-03-23T01:29:47;5.50;99.90
51853;DHT22;37894;53.172;6.598;2024-03-23T01:34:39;5.40;99.90
51853;DHT22;37894;53.172;6.598;2024-03-23T01:37:04;5.50;99.90
51853;DHT22;37894;53.172;6.598;2024-03-23T01:39:30;5.10;99.90
51853;DHT22;37894;53.172;6.598;2024-03-23T01:41:55;5.10;99.90
51853;DHT22;37894;53.172;6.598;2024-03-23T01:44:21;5.50;99.90
51853;DHT22;37894;53.172;6.598;2024-03-23T01:46:47;5.30;99.90
51853;DHT22;37894;53.172;6.598;2024-03-23T01:49:13;5.60;99.90
51853;DHT22;37894;53.172;6.598;2024-03-23T01:51:39;5.60;99.90
51853;DHT22;37894;53.172;6.598;2024-03-23T01:54:07;6.20;99.90
51853;DHT22;37894;53.172;6.598;2024-03-23T01:56:34;5.30;99.90
51853;DHT22;37894;53.172;6.598;2024-03-23T01:59:03;5.20;99.90
51853;DHT22;37894;53.172;6.598;2024-03-23T02:01:29;5.10;99.90
51853;DHT22;37894;53.172;6.598;2024-03-23T02:06:21;5.50;99.90
51853;DHT22;37894;53.172;6.598;2024-03-23T02:08:48;4.40;99.90
51853;DHT22;37894;53.172;6.598;2024-03-23T02:13:40;5.10;99.90
51853;DHT22;37894;53.172;6.598;2024-03-23T02:16:06;5.60;99.90
51853;DHT22;37894;53.172;6.598;2024-03-23T02:18:33;5.00;99.90
51853;DHT22;37894;53.172;6.598;2024-03-23T02:20:59;5.10;99.90
51853;DHT22;37894;53.172;6.598;2024-03-23T02:23:24;5.20;99.90
51853;DHT22;37894;53.172;6.598;2024-03-23T02:28:16;4.80;99.90
51853;DHT22;37894;53.172;6.598;2024-03-23T02:30:45;4.40;99.90
51853;DHT22;37894;53.172;6.598;2024-03-23T02:33:11;5.00;99.90
51853;DHT22;37894;53.172;6.598;2024-03-23T02:35:37;5.00;99.90
51853;DHT22;37894;53.172;6.598;2024-03-23T02:38:02;5.00;99.90
51853;DHT22;37894;53.172;6.598;2024-03-23T02:40:28;5.20;99.90
51853;DHT22;37894;53.172;6.598;2024-03-23T02:45:20;4.80;99.90
51853;DHT22;37894;53.172;6.598;2024-03-23T02:52:40;4.90;99.90
51853;DHT22;37894;53.172;6.598;2024-03-23T02:55:06;4.80;99.90
51853;DHT22;37894;53.172;6.598;2024-03-23T02:57:32;5.10;99.90
51853;DHT22;37894;53.172;6.598;2024-03-23T02:59:58;4.20;99.90
51853;DHT22;37894;53.172;6.598;2024-03-23T03:02:24;4.70;99.90
51853;DHT22;37894;53.172;6.598;2024-03-23T03:04:49;5.00;99.90
51853;DHT22;37894;53.172;6.598;2024-03-23T03:07:15;3.90;99.90
51853;DHT22;37894;53.172;6.598;2024-03-23T03:09:41;4.70;99.90
51853;DHT22;37894;53.172;6.598;2024-03-23T03:12:07;5.10;99.90
51853;DHT22;37894;53.172;6.598;2024-03-23T03:14:33;5.10;99.90
51853;DHT22;37894;53.172;6.598;2024-03-23T03:16:59;4.50;99.90
51853;DHT22;37894;53.172;6.598;2024-03-23T03:19:24;4.40;99.90
51853;DHT22;37894;53.172;6.598;2024-03-23T03:21:50;4.90;99.90
51853;DHT22;37894;53.172;6.598;2024-03-23T03:24:16;5.80;99.90
51853;DHT22;37894;53.172;6.598;2024-03-23T03:26:45;5.60;99.90
51853;DHT22;37894;53.172;6.598;2024-03-23T03:29:11;3.90;99.90
51853;DHT22;37894;53.172;6.598;2024-03-23T03:31:37;4.20;99.90
51853;DHT22;37894;53.172;6.598;2024-03-23T03:34:04;4.80;99.90
51853;DHT22;37894;53.172;6.598;2024-03-23T03:38:55;5.30;99.90
51853;DHT22;37894;53.172;6.598;2024-03-23T03:43:50;4.40;99.90
51853;DHT22;37894;53.172;6.598;2024-03-23T03:51:10;3.50;99.90
51853;DHT22;37894;53.172;6.598;2024-03-23T03:56:02;4.40;99.90
51853;DHT22;37894;53.172;6.598;2024-03-23T03:58:28;4.90;99.90
51853;DHT22;37894;53.172;6.598;2024-03-23T04:03:21;4.40;99.90
51853;DHT22;37894;53.172;6.598;2024-03-23T04:05:54;4.40;99.90
51853;DHT22;37894;53.172;6.598;2024-03-23T04:08:20;4.20;99.90
51853;DHT22;37894;53.172;6.598;2024-03-23T04:13:12;4.40;99.90
51853;DHT22;37894;53.172;6.598;2024-03-23T04:15:38;4.40;99.90
51853;DHT22;37894;53.172;6.598;2024-03-23T04:20:30;4.50;99.90
51853;DHT22;37894;53.172;6.598;2024-03-23T04:25:22;4.70;99.90
51853;DHT22;37894;53.172;6.598;2024-03-23T04:35:07;4.60;99.90
51853;DHT22;37894;53.172;6.598;2024-03-23T04:37:39;4.50;99.90
51853;DHT22;37894;53.172;6.598;2024-03-23T04:42:34;4.40;99.90
51853;DHT22;37894;53.172;6.598;2024-03-23T04:45:00;4.90;99.90
51853;DHT22;37894;53.172;6.598;2024-03-23T04:47:26;4.30;99.90
51853;DHT22;37894;53.172;6.598;2024-03-23T04:49:52;4.70;99.90
51853;DHT22;37894;53.172;6.598;2024-03-23T04:52:18;4.40;99.90
51853;DHT22;37894;53.172;6.598;2024-03-23T04:54:44;4.40;99.90
51853;DHT22;37894;53.172;6.598;2024-03-23T04:57:10;4.90;99.90
51853;DHT22;37894;53.172;6.598;2024-03-23T04:59:36;4.50;99.90
51853;DHT22;37894;53.172;6.598;2024-03-23T05:04:28;4.50;99.90
51853;DHT22;37894;53.172;6.598;2024-03-23T05:11:46;4.80;99.90
51853;DHT22;37894;53.172;6.598;2024-03-23T05:14:13;4.30;99.90
51853;DHT22;37894;53.172;6.598;2024-03-23T05:16:39;4.10;99.90
51853;DHT22;37894;53.172;6.598;2024-03-23T05:19:05;4.50;99.90
51853;DHT22;37894;53.172;6.598;2024-03-23T05:23:57;4.10;99.90
51853;DHT22;37894;53.172;6.598;2024-03-23T05:26:23;4.30;99.90
51853;DHT22;37894;53.172;6.598;2024-03-23T05:28:49;4.50;99.90
51853;DHT22;37894;53.172;6.598;2024-03-23T05:31:24;4.40;99.90
51853;DHT22;37894;53.172;6.598;2024-03-23T05:33:50;5.00;99.90
51853;DHT22;37894;53.172;6.598;2024-03-23T05:36:17;4.20;99.90
51853;DHT22;37894;53.172;6.598;2024-03-23T05:41:09;4.40;99.90
51853;DHT22;37894;53.172;6.598;2024-03-23T05:43:35;4.40;99.90
51853;DHT22;37894;53.172;6.598;2024-03-23T05:46:01;3.70;99.90
51853;DHT22;37894;53.172;6.598;2024-03-23T05:48:27;4.50;99.90
51853;DHT22;37894;53.172;6.598;2024-03-23T05:50:53;4.10;99.90
51853;DHT22;37894;53.172;6.598;2024-03-23T05:53:20;4.20;99.90
51853;DHT22;37894;53.172;6.598;2024-03-23T05:55:49;4.60;99.90
51853;DHT22;37894;53.172;6.598;2024-03-23T05:58:16;4.50;99.90
51853;DHT22;37894;53.172;6.598;2024-03-23T06:00:42;4.20;99.90
51853;DHT22;37894;53.172;6.598;2024-03-23T06:03:08;4.60;99.90
51853;DHT22;37894;53.172;6.598;2024-03-23T06:05:34;4.30;99.90
51853;DHT22;37894;53.172;6.598;2024-03-23T06:08:00;4.30;99.90
51853;DHT22;37894;53.172;6.598;2024-03-23T06:10:26;5.00;99.90
51853;DHT22;37894;53.172;6.598;2024-03-23T06:12:51;4.60;99.90
51853;DHT22;37894;53.172;6.598;2024-03-23T06:15:20;4.30;99.90
51853;DHT22;37894;53.172;6.598;2024-03-23T06:17:46;4.60;99.90
51853;DHT22;37894;53.172;6.598;2024-03-23T06:20:12;5.20;99.90
51853;DHT22;37894;53.172;6.598;2024-03-23T06:22:38;4.90;99.90
51853;DHT22;37894;53.172;6.598;2024-03-23T06:25:04;5.60;99.90
51853;DHT22;37894;53.172;6.598;2024-03-23T06:32:23;5.30;99.90
51853;DHT22;37894;53.172;6.598;2024-03-23T06:34:49;5.60;99.90
51853;DHT22;37894;53.172;6.598;2024-03-23T06:37:15;4.80;99.90
51853;DHT22;37894;53.172;6.598;2024-03-23T06:39:40;4.60;99.90
51853;DHT22;37894;53.172;6.598;2024-03-23T06:42:06;4.50;99.90
51853;DHT22;37894;53.172;6.598;2024-03-23T06:44:33;5.10;99.90
51853;DHT22;37894;53.172;6.598;2024-03-23T06:46:59;4.90;99.90
51853;DHT22;37894;53.172;6.598;2024-03-23T06:51:51;4.40;99.90
51853;DHT22;37894;53.172;6.598;2024-03-23T06:54:18;4.70;99.90
51853;DHT22;37894;53.172;6.598;2024-03-23T06:56:44;5.00;99.90
51853;DHT22;37894;53.172;6.598;2024-03-23T06:59:10;5.00;99.90
51853;DHT22;37894;53.172;6.598;2024-03-23T07:01:36;5.20;99.90
51853;DHT22;37894;53.172;6.598;2024-03-23T07:06:29;5.10;99.90
51853;DHT22;37894;53.172;6.598;2024-03-23T07:08:56;5.20;99.90
51853;DHT22;37894;53.172;6.598;2024-03-23T07:11:22;5.20;99.90
51853;DHT22;37894;53.172;6.598;2024-03-23T07:13:52;5.50;99.90
51853;DHT22;37894;53.172;6.598;2024-03-23T07:16:18;5.60;99.90
51853;DHT22;37894;53.172;6.598;2024-03-23T07:18:44;5.50;99.90
51853;DHT22;37894;53.172;6.598;2024-03-23T07:21:09;5.10;99.90
51853;DHT22;37894;53.172;6.598;2024-03-23T07:23:35;5.20;99.90
51853;DHT22;37894;53.172;6.598;2024-03-23T07:26:02;5.40;99.90
51853;DHT22;37894;53.172;6.598;2024-03-23T07:28:30;4.70;99.90
51853;DHT22;37894;53.172;6.598;2024-03-23T07:31:16;5.20;99.90
51853;DHT22;37894;53.172;6.598;2024-03-23T07:33:44;5.60;99.90
51853;DHT22;37894;53.172;6.598;2024-03-23T07:36:09;5.40;99.90
51853;DHT22;37894;53.172;6.598;2024-03-23T07:38:35;5.50;99.90
51853;DHT22;37894;53.172;6.598;2024-03-23T07:41:05;5.20;99.90
51853;DHT22;37894;53.172;6.598;2024-03-23T07:43:31;5.40;99.90
51853;DHT22;37894;53.172;6.598;2024-03-23T07:45:57;5.40;99.90
51853;DHT22;37894;53.172;6.598;2024-03-23T07:48:22;5.40;99.90
51853;DHT22;37894;53.172;6.598;2024-03-23T07:51:02;5.50;99.90
51853;DHT22;37894;53.172;6.598;2024-03-23T07:53:29;6.10;99.90
51853;DHT22;37894;53.172;6.598;2024-03-23T07:55:59;5.80;99.90
51853;DHT22;37894;53.172;6.598;2024-03-23T08:00:53;6.00;99.90
51853;DHT22;37894;53.172;6.598;2024-03-23T08:03:19;6.30;99.90
51853;DHT22;37894;53.172;6.598;2024-03-23T08:05:44;5.80;99.90
51853;DHT22;37894;53.172;6.598;2024-03-23T08:08:11;6.20;99.90
51853;DHT22;37894;53.172;6.598;2024-03-23T08:10:37;6.40;99.90
51853;DHT22;37894;53.172;6.598;2024-03-23T08:13:12;6.60;99.90
51853;DHT22;37894;53.172;6.598;2024-03-23T08:15:37;6.60;99.90
51853;DHT22;37894;53.172;6.598;2024-03-23T08:18:03;6.40;99.90
51853;DHT22;37894;53.172;6.598;2024-03-23T08:20:30;6.60;99.90
51853;DHT22;37894;53.172;6.598;2024-03-23T08:22:55;6.60;99.90
51853;DHT22;37894;53.172;6.598;2024-03-23T08:25:21;6.40;99.90
51853;DHT22;37894;53.172;6.598;2024-03-23T08:27:47;6.20;99.90
51853;DHT22;37894;53.172;6.598;2024-03-23T08:30:13;7.60;99.90
51853;DHT22;37894;53.172;6.598;2024-03-23T08:35:05;7.00;99.90
51853;DHT22;37894;53.172;6.598;2024-03-23T08:42:23;8.20;99.90
51853;DHT22;37894;53.172;6.598;2024-03-23T08:44:48;7.40;99.90
51853;DHT22;37894;53.172;6.598;2024-03-23T08:47:15;8.40;99.90
51853;DHT22;37894;53.172;6.598;2024-03-23T08:49:41;7.70;99.90
51853;DHT22;37894;53.172;6.598;2024-03-23T08:54:33;7.50;99.90
51853;DHT22;37894;53.172;6.598;2024-03-23T08:57:00;8.10;99.90
51853;DHT22;37894;53.172;6.598;2024-03-23T08:59:25;8.20;99.90
51853;DHT22;37894;53.172;6.598;2024-03-23T09:04:17;7.30;99.90
51853;DHT22;37894;53.172;6.598;2024-03-23T09:06:43;7.70;99.90
51853;DHT22;37894;53.172;6.598;2024-03-23T09:09:09;7.30;99.90
51853;DHT22;37894;53.172;6.598;2024-03-23T09:11:35;6.50;99.90
51853;DHT22;37894;53.172;6.598;2024-03-23T09:21:18;8.40;99.90
51853;DHT22;37894;53.172;6.598;2024-03-23T09:26:10;7.90;99.90
51853;DHT22;37894;53.172;6.598;2024-03-23T09:28:37;7.40;99.90
51853;DHT22;37894;53.172;6.598;2024-03-23T09:31:07;7.70;99.90
51853;DHT22;37894;53.172;6.598;2024-03-23T09:33:33;7.70;99.90
51853;DHT22;37894;53.172;6.598;2024-03-23T09:36:03;8.10;99.90
51853;DHT22;37894;53.172;6.598;2024-03-23T09:40:57;8.90;99.90
51853;DHT22;37894;53.172;6.598;2024-03-23T09:43:23;9.10;99.90
51853;DHT22;37894;53.172;6.598;2024-03-23T09:45:49;8.70;99.90
51853;DHT22;37894;53.172;6.598;2024-03-23T09:48:15;8.50;99.90
51853;DHT22;37894;53.172;6.598;2024-03-23T09:50:42;8.20;99.90
51853;DHT22;37894;53.172;6.598;2024-03-23T09:53:10;7.80;99.90
51853;DHT22;37894;53.172;6.598;2024-03-23T09:55:41;7.40;99.90
51853;DHT22;37894;53.172;6.598;2024-03-23T09:58:07;6.90;99.90
51853;DHT22;37894;53.172;6.598;2024-03-23T10:00:34;7.20;99.90
51853;DHT22;37894;53.172;6.598;2024-03-23T10:03:00;7.10;99.90
51853;DHT22;37894;53.172;6.598;2024-03-23T10:05:30;7.50;99.90
51853;DHT22;37894;53.172;6.598;2024-03-23T10:08:18;7.50;99.90
51853;DHT22;37894;53.172;6.598;2024-03-23T10:10:45;7.80;99.90
51853;DHT22;37894;53.172;6.598;2024-03-23T10:13:14;8.00;99.90
51853;DHT22;37894;53.172;6.598;2024-03-23T10:15:57;7.90;99.90
51853;DHT22;37894;53.172;6.598;2024-03-23T10:18:24;8.20;99.90
51853;DHT22;37894;53.172;6.598;2024-03-23T10:23:31;8.20;99.90
51853;DHT22;37894;53.172;6.598;2024-03-23T10:26:13;8.80;99.90
51853;DHT22;37894;53.172;6.598;2024-03-23T10:29:00;8.70;99.90
51853;DHT22;37894;53.172;6.598;2024-03-23T10:31:32;8.30;99.90
51853;DHT22;37894;53.172;6.598;2024-03-23T10:33:58;9.70;99.90
51853;DHT22;37894;53.172;6.598;2024-03-23T10:38:54;9.20;99.90
51853;DHT22;37894;53.172;6.598;2024-03-23T10:43:47;8.90;99.90
51853;DHT22;37894;53.172;6.598;2024-03-23T10:48:39;8.50;99.90
51853;DHT22;37894;53.172;6.598;2024-03-23T10:51:08;7.60;99.90
51853;DHT22;37894;53.172;6.598;2024-03-23T10:53:35;8.50;99.90
51853;DHT22;37894;53.172;6.598;2024-03-23T10:56:03;8.40;99.90
51853;DHT22;37894;53.172;6.598;2024-03-23T11:01:02;11.60;99.90
51853;DHT22;37894;53.172;6.598;2024-03-23T11:03:36;8.40;99.90
51853;DHT22;37894;53.172;6.598;2024-03-23T11:06:03;8.50;99.90
51853;DHT22;37894;53.172;6.598;2024-03-23T11:08:36;8.40;99.90
51853;DHT22;37894;53.172;6.598;2024-03-23T11:11:17;8.40;99.90
51853;DHT22;37894;53.172;6.598;2024-03-23T11:13:48;8.60;99.90
51853;DHT22;37894;53.172;6.598;2024-03-23T11:16:27;8.10;99.90
51853;DHT22;37894;53.172;6.598;2024-03-23T11:19:34;7.00;99.90
51853;DHT22;37894;53.172;6.598;2024-03-23T11:22:02;8.20;99.90
51853;DHT22;37894;53.172;6.598;2024-03-23T11:26:53;7.10;99.90
51853;DHT22;37894;53.172;6.598;2024-03-23T11:31:54;7.30;99.90
51853;DHT22;37894;53.172;6.598;2024-03-23T11:34:20;7.40;99.90
51853;DHT22;37894;53.172;6.598;2024-03-23T11:36:47;8.10;99.90
51853;DHT22;37894;53.172;6.598;2024-03-23T11:39:20;8.90;99.90
51853;DHT22;37894;53.172;6.598;2024-03-23T11:41:53;8.60;99.90
51853;DHT22;37894;53.172;6.598;2024-03-23T11:44:23;8.80;99.90
51853;DHT22;37894;53.172;6.598;2024-03-23T11:49:27;9.20;99.90
51853;DHT22;37894;53.172;6.598;2024-03-23T11:51:54;9.10;99.90
51853;DHT22;37894;53.172;6.598;2024-03-23T11:54:24;9.70;99.90
51853;DHT22;37894;53.172;6.598;2024-03-23T12:01:58;8.30;99.90
51853;DHT22;37894;53.172;6.598;2024-03-23T12:04:28;8.70;99.90
51853;DHT22;37894;53.172;6.598;2024-03-23T12:07:13;8.50;99.90
51853;DHT22;37894;53.172;6.598;2024-03-23T12:09:39;8.30;99.90
51853;DHT22;37894;53.172;6.598;2024-03-23T12:12:16;7.80;99.90
51853;DHT22;37894;53.172;6.598;2024-03-23T12:14:46;8.10;99.90
51853;DHT22;37894;53.172;6.598;2024-03-23T12:17:26;8.20;99.90
51853;DHT22;37894;53.172;6.598;2024-03-23T12:19:52;9.20;99.90
51853;DHT22;37894;53.172;6.598;2024-03-23T12:22:21;8.40;99.90
51853;DHT22;37894;53.172;6.598;2024-03-23T12:24:48;8.20;99.90
51853;DHT22;37894;53.172;6.598;2024-03-23T12:27:14;8.10;99.90
51853;DHT22;37894;53.172;6.598;2024-03-23T12:29:40;7.90;99.90
51853;DHT22;37894;53.172;6.598;2024-03-23T12:32:11;7.50;99.90
51853;DHT22;37894;53.172;6.598;2024-03-23T12:34:38;6.50;99.90
51853;DHT22;37894;53.172;6.598;2024-03-23T12:37:03;7.30;99.90
51853;DHT22;37894;53.172;6.598;2024-03-23T12:46:47;8.10;99.90
51853;DHT22;37894;53.172;6.598;2024-03-23T12:49:13;7.80;99.90
51853;DHT22;37894;53.172;6.598;2024-03-23T12:51:39;8.10;99.90
51853;DHT22;37894;53.172;6.598;2024-03-23T12:54:04;7.60;99.90
51853;DHT22;37894;53.172;6.598;2024-03-23T12:56:30;7.90;99.90
51853;DHT22;37894;53.172;6.598;2024-03-23T12:58:56;7.50;99.90
51853;DHT22;37894;53.172;6.598;2024-03-23T13:01:26;7.00;99.90
51853;DHT22;37894;53.172;6.598;2024-03-23T13:03:52;7.10;99.90
51853;DHT22;37894;53.172;6.598;2024-03-23T13:06:18;7.00;99.90
51853;DHT22;37894;53.172;6.598;2024-03-23T13:08:45;7.40;99.90
51853;DHT22;37894;53.172;6.598;2024-03-23T13:11:11;8.10;99.90
51853;DHT22;37894;53.172;6.598;2024-03-23T13:13:38;8.80;99.90
51853;DHT22;37894;53.172;6.598;2024-03-23T13:16:04;9.10;99.90
51853;DHT22;37894;53.172;6.598;2024-03-23T13:18:31;9.40;99.90
51853;DHT22;37894;53.172;6.598;2024-03-23T13:20:58;9.80;99.90
51853;DHT22;37894;53.172;6.598;2024-03-23T13:23:23;9.10;99.90
51853;DHT22;37894;53.172;6.598;2024-03-23T13:25:50;10.20;99.90
51853;DHT22;37894;53.172;6.598;2024-03-23T13:28:16;10.10;99.90
51853;DHT22;37894;53.172;6.598;2024-03-23T13:30:50;10.50;99.90
51853;DHT22;37894;53.172;6.598;2024-03-23T13:33:16;9.80;99.90
51853;DHT22;37894;53.172;6.598;2024-03-23T13:35:51;10.60;99.90
51853;DHT22;37894;53.172;6.598;2024-03-23T13:38:17;11.10;99.90
51853;DHT22;37894;53.172;6.598;2024-03-23T13:40:54;11.20;99.90
51853;DHT22;37894;53.172;6.598;2024-03-23T13:43:20;10.50;99.90
51853;DHT22;37894;53.172;6.598;2024-03-23T13:45:47;10.50;99.90
51853;DHT22;37894;53.172;6.598;2024-03-23T13:48:15;10.20;99.90
51853;DHT22;37894;53.172;6.598;2024-03-23T13:50:41;9.90;99.90
51853;DHT22;37894;53.172;6.598;2024-03-23T13:53:06;9.30;99.90
51853;DHT22;37894;53.172;6.598;2024-03-23T13:58:03;9.40;99.90
51853;DHT22;37894;53.172;6.598;2024-03-23T14:02:57;9.50;99.90
51853;DHT22;37894;53.172;6.598;2024-03-23T14:10:16;9.70;99.90
51853;DHT22;37894;53.172;6.598;2024-03-23T14:12:42;9.80;99.90
51853;DHT22;37894;53.172;6.598;2024-03-23T14:15:08;10.80;99.90
51853;DHT22;37894;53.172;6.598;2024-03-23T14:20:00;9.90;99.90
51853;DHT22;37894;53.172;6.598;2024-03-23T14:22:27;9.60;99.90
51853;DHT22;37894;53.172;6.598;2024-03-23T14:24:53;9.60;99.90
51853;DHT22;37894;53.172;6.598;2024-03-23T14:27:19;9.60;99.90
51853;DHT22;37894;53.172;6.598;2024-03-23T14:29:48;9.30;99.90
51853;DHT22;37894;53.172;6.598;2024-03-23T14:32:14;9.20;99.90
51853;DHT22;37894;53.172;6.598;2024-03-23T14:39:33;8.10;99.90
51853;DHT22;37894;53.172;6.598;2024-03-23T14:42:03;9.00;99.90
51853;DHT22;37894;53.172;6.598;2024-03-23T14:44:29;8.60;99.90
51853;DHT22;37894;53.172;6.598;2024-03-23T14:56:39;8.30;99.90
51853;DHT22;37894;53.172;6.598;2024-03-23T15:01:32;8.40;99.90
51853;DHT22;37894;53.172;6.598;2024-03-23T15:03:57;8.60;99.90
51853;DHT22;37894;53.172;6.598;2024-03-23T15:06:23;8.20;99.90
51853;DHT22;37894;53.172;6.598;2024-03-23T15:16:09;8.10;99.90
51853;DHT22;37894;53.172;6.598;2024-03-23T15:18:35;8.10;99.90
51853;DHT22;37894;53.172;6.598;2024-03-23T15:21:02;7.70;99.90
51853;DHT22;37894;53.172;6.598;2024-03-23T15:23:29;8.00;99.90
51853;DHT22;37894;53.172;6.598;2024-03-23T15:25:56;8.20;99.90
51853;DHT22;37894;53.172;6.598;2024-03-23T15:28:23;7.90;99.90
51853;DHT22;37894;53.172;6.598;2024-03-23T15:33:15;7.70;99.90
51853;DHT22;37894;53.172;6.598;2024-03-23T15:35:41;7.80;99.90
51853;DHT22;37894;53.172;6.598;2024-03-23T15:38:09;7.90;99.90
51853;DHT22;37894;53.172;6.598;2024-03-23T15:40:35;7.80;99.90
51853;DHT22;37894;53.172;6.598;2024-03-23T15:43:01;7.90;99.90
51853;DHT22;37894;53.172;6.598;2024-03-23T15:47:53;7.40;99.90
51853;DHT22;37894;53.172;6.598;2024-03-23T15:50:18;7.50;99.90
51853;DHT22;37894;53.172;6.598;2024-03-23T15:55:10;7.70;99.90
51853;DHT22;37894;53.172;6.598;2024-03-23T15:57:40;8.00;99.90
51853;DHT22;37894;53.172;6.598;2024-03-23T16:00:07;8.20;99.90
51853;DHT22;37894;53.172;6.598;2024-03-23T16:02:33;8.00;99.90
51853;DHT22;37894;53.172;6.598;2024-03-23T16:07:28;8.00;99.90
51853;DHT22;37894;53.172;6.598;2024-03-23T16:12:21;8.20;99.90
51853;DHT22;37894;53.172;6.598;2024-03-23T16:14:46;8.10;99.90
51853;DHT22;37894;53.172;6.598;2024-03-23T16:19:38;8.30;99.90
51853;DHT22;37894;53.172;6.598;2024-03-23T16:24:30;8.20;99.90
51853;DHT22;37894;53.172;6.598;2024-03-23T16:29:21;7.70;99.90
51853;DHT22;37894;53.172;6.598;2024-03-23T16:31:47;6.90;99.90
51853;DHT22;37894;53.172;6.598;2024-03-23T16:36:39;7.70;99.90
51853;DHT22;37894;53.172;6.598;2024-03-23T16:44:00;7.50;99.90
51853;DHT22;37894;53.172;6.598;2024-03-23T16:48:51;7.20;99.90
51853;DHT22;37894;53.172;6.598;2024-03-23T16:51:17;7.80;99.90
51853;DHT22;37894;53.172;6.598;2024-03-23T16:53:43;7.70;99.90
51853;DHT22;37894;53.172;6.598;2024-03-23T16:56:11;7.40;99.90
51853;DHT22;37894;53.172;6.598;2024-03-23T16:58:38;7.40;99.90
51853;DHT22;37894;53.172;6.598;2024-03-23T17:01:12;7.00;99.90
51853;DHT22;37894;53.172;6.598;2024-03-23T17:03:49;6.70;99.90
51853;DHT22;37894;53.172;6.598;2024-03-23T17:08:43;7.00;99.90
51853;DHT22;37894;53.172;6.598;2024-03-23T17:13:36;7.20;99.90
51853;DHT22;37894;53.172;6.598;2024-03-23T17:16:02;6.80;99.90
51853;DHT22;37894;53.172;6.598;2024-03-23T17:20:55;6.80;99.90
51853;DHT22;37894;53.172;6.598;2024-03-23T17:23:28;7.00;99.90
51853;DHT22;37894;53.172;6.598;2024-03-23T17:25:55;6.90;99.90
51853;DHT22;37894;53.172;6.598;2024-03-23T17:28:21;6.70;99.90
51853;DHT22;37894;53.172;6.598;2024-03-23T17:30:47;6.70;99.90
51853;DHT22;37894;53.172;6.598;2024-03-23T17:33:14;6.80;99.90
51853;DHT22;37894;53.172;6.598;2024-03-23T17:35:39;6.60;99.90
51853;DHT22;37894;53.172;6.598;2024-03-23T17:40:31;7.10;99.90
51853;DHT22;37894;53.172;6.598;2024-03-23T17:45:23;7.80;99.90
51853;DHT22;37894;53.172;6.598;2024-03-23T17:50:19;6.10;99.90
51853;DHT22;37894;53.172;6.598;2024-03-23T17:52:46;6.80;99.90
51853;DHT22;37894;53.172;6.598;2024-03-23T17:55:13;6.40;99.90
51853;DHT22;37894;53.172;6.598;2024-03-23T18:00:05;6.30;99.90
51853;DHT22;37894;53.172;6.598;2024-03-23T18:02:33;7.30;99.90
51853;DHT22;37894;53.172;6.598;2024-03-23T18:04:59;6.30;99.90
51853;DHT22;37894;53.172;6.598;2024-03-23T18:07:25;6.40;99.90
51853;DHT22;37894;53.172;6.598;2024-03-23T18:09:51;6.50;99.90
51853;DHT22;37894;53.172;6.598;2024-03-23T18:14:44;6.50;99.90
51853;DHT22;37894;53.172;6.598;2024-03-23T18:17:09;5.90;99.90
51853;DHT22;37894;53.172;6.598;2024-03-23T18:22:01;6.70;99.90
51853;DHT22;37894;53.172;6.598;2024-03-23T18:24:27;5.60;99.90
51853;DHT22;37894;53.172;6.598;2024-03-23T18:31:48;6.10;99.90
51853;DHT22;37894;53.172;6.598;2024-03-23T18:34:13;5.50;99.90
51853;DHT22;37894;53.172;6.598;2024-03-23T18:36:39;6.70;99.90
51853;DHT22;37894;53.172;6.598;2024-03-23T18:39:05;5.70;99.90
51853;DHT22;37894;53.172;6.598;2024-03-23T18:41:32;6.40;99.90
51853;DHT22;37894;53.172;6.598;2024-03-23T18:46:26;5.50;99.90
51853;DHT22;37894;53.172;6.598;2024-03-23T18:48:51;5.90;99.90
51853;DHT22;37894;53.172;6.598;2024-03-23T18:51:17;5.40;99.90
51853;DHT22;37894;53.172;6.598;2024-03-23T18:53:45;5.30;99.90
51853;DHT22;37894;53.172;6.598;2024-03-23T19:01:04;5.20;99.90
51853;DHT22;37894;53.172;6.598;2024-03-23T19:03:34;4.90;99.90
51853;DHT22;37894;53.172;6.598;2024-03-23T19:06:01;4.90;99.90
51853;DHT22;37894;53.172;6.598;2024-03-23T19:10:57;5.10;99.90
51853;DHT22;37894;53.172;6.598;2024-03-23T19:13:24;5.10;99.90
51853;DHT22;37894;53.172;6.598;2024-03-23T19:15:50;5.40;99.90
51853;DHT22;37894;53.172;6.598;2024-03-23T19:20:43;5.20;99.90
51853;DHT22;37894;53.172;6.598;2024-03-23T19:23:09;5.00;99.90
51853;DHT22;37894;53.172;6.598;2024-03-23T19:25:35;5.00;99.90
51853;DHT22;37894;53.172;6.598;2024-03-23T19:28:01;5.10;99.90
51853;DHT22;37894;53.172;6.598;2024-03-23T19:30:30;5.90;99.90
51853;DHT22;37894;53.172;6.598;2024-03-23T19:32:56;5.10;99.90
51853;DHT22;37894;53.172;6.598;2024-03-23T19:37:50;6.10;99.90
51853;DHT22;37894;53.172;6.598;2024-03-23T19:42:42;4.90;99.90
51853;DHT22;37894;53.172;6.598;2024-03-23T19:45:08;5.00;99.90
51853;DHT22;37894;53.172;6.598;2024-03-23T19:47:38;4.40;99.90
51853;DHT22;37894;53.172;6.598;2024-03-23T19:50:03;4.40;99.90
51853;DHT22;37894;53.172;6.598;2024-03-23T19:54:55;5.00;99.90
51853;DHT22;37894;53.172;6.598;2024-03-23T19:57:21;4.90;99.90
51853;DHT22;37894;53.172;6.598;2024-03-23T20:02:12;4.70;99.90
51853;DHT22;37894;53.172;6.598;2024-03-23T20:09:30;4.90;99.90
51853;DHT22;37894;53.172;6.598;2024-03-23T20:11:56;5.60;99.90
51853;DHT22;37894;53.172;6.598;2024-03-23T20:14:24;4.70;99.90
51853;DHT22;37894;53.172;6.598;2024-03-23T20:16:50;4.20;99.90
51853;DHT22;37894;53.172;6.598;2024-03-23T20:21:42;4.20;99.90
51853;DHT22;37894;53.172;6.598;2024-03-23T20:26:34;4.40;99.90
51853;DHT22;37894;53.172;6.598;2024-03-23T20:31:25;4.80;99.90
51853;DHT22;37894;53.172;6.598;2024-03-23T20:33:51;4.40;99.90
51853;DHT22;37894;53.172;6.598;2024-03-23T20:38:44;4.20;99.90
51853;DHT22;37894;53.172;6.598;2024-03-23T20:41:09;5.00;99.90
51853;DHT22;37894;53.172;6.598;2024-03-23T20:46:03;4.60;99.90
51853;DHT22;37894;53.172;6.598;2024-03-23T20:48:30;4.50;99.90
51853;DHT22;37894;53.172;6.598;2024-03-23T20:51:04;4.30;99.90
51853;DHT22;37894;53.172;6.598;2024-03-23T20:53:30;5.50;99.90
51853;DHT22;37894;53.172;6.598;2024-03-23T20:55:58;4.80;99.90
51853;DHT22;37894;53.172;6.598;2024-03-23T20:58:25;4.10;99.90
51853;DHT22;37894;53.172;6.598;2024-03-23T21:00:51;5.10;99.90
51853;DHT22;37894;53.172;6.598;2024-03-23T21:03:17;4.30;99.90
51853;DHT22;37894;53.172;6.598;2024-03-23T21:05:43;4.80;99.90
51853;DHT22;37894;53.172;6.598;2024-03-23T21:08:13;4.30;99.90